Allentown, Arizona
Current Conditions -  °F | °C
As of 9:53 PM on Sunday 19 Oct 2014 (Local Time) from KRQE Reporting Station
Scattered Clouds Scattered Clouds  
Wind Chill: 44°   Ceiling: Unl
Heat Index: 44°   Visibility: 10mi
Dew Point: 39°   Wind: 0mph
Humidity: 82%   Direction: NA
Pressure: 30.21"   Gusts: NA
Location:  35.2918°N, 109.157°W
Report Text: KRQE 200353Z AUTO 00000KT 10SM SCT110 07/04 A3021 RMK AO2 SLP166 T00670039 TSNO
Loading
Personal Weather Stations






























Interactive Weather Map
Tropical Storm Tracking
New forecast layout! Learn more

10-Day Weather Forecast

Advertisements
Track Severe Weather on mobile